Time;durP1;ratioP1;P1;durP2;ratioP2;P2;SDS_P1;SDS_P2;PMS_P1;PMS_P2;Temp;Humidity;BMP_temperature;BMP_pressure;BME280_temperature;BME280_humidity;BME280_pressure;Samples;Min_cycle;Max_cycle;Signal;HPM_P1;HPM_P2
2021/07/02 00:01:57;;;;;;;;;;;17.50;83.30;;;;;;4975188;28;19953;-72
2021/07/02 00:04:22;;;;;;;;;;;17.40;84.10;;;;;;4989653;28;19921;-74
2021/07/02 00:06:48;;;;;;;;;;;17.40;83.70;;;;;;4974610;28;19996;-73
2021/07/02 00:09:13;;;;;;;;;;;17.40;84.00;;;;;;4974561;28;19929;-72
2021/07/02 00:11:39;;;;;;;;;;;17.40;83.80;;;;;;4974834;28;19923;-72
2021/07/02 00:14:04;;;;;;;;;;;17.40;84.20;;;;;;4974536;28;19925;-74
2021/07/02 00:16:30;;;;;;;;;;;17.40;84.70;;;;;;4974551;28;19922;-73
2021/07/02 00:18:56;;;;;;;;;;;17.40;84.30;;;;;;4974441;28;19942;-72
2021/07/02 00:21:21;;;;;;;;;;;17.50;84.40;;;;;;4974479;28;19921;-72
2021/07/02 00:23:47;;;;;;;;;;;17.50;84.00;;;;;;4974438;28;19930;-72
2021/07/02 00:26:12;;;;;;;;;;;17.50;84.40;;;;;;4974698;28;19928;-72
2021/07/02 00:28:38;;;;;;;;;;;17.40;84.10;;;;;;4974374;28;19978;-72
2021/07/02 00:31:03;;;;;;;;;;;17.50;83.70;;;;;;4989681;28;19974;-73
2021/07/02 00:33:29;;;;;;;;;;;17.60;84.10;;;;;;4989407;28;19925;-72
2021/07/02 00:35:54;;;;;;;;;;;17.50;83.60;;;;;;4974948;28;19923;-72
2021/07/02 00:38:20;;;;;;;;;;;17.40;84.40;;;;;;4977768;28;19972;-72
2021/07/02 00:40:45;;;;;;;;;;;17.40;84.10;;;;;;4978042;28;19934;-72
2021/07/02 00:43:11;;;;;;;;;;;17.30;84.30;;;;;;4977739;28;19928;-73
2021/07/02 00:45:36;;;;;;;;;;;17.40;84.70;;;;;;4977702;28;20364;-72
2021/07/02 00:48:02;;;;;;;;;;;17.40;85.50;;;;;;4977919;28;19929;-72
2021/07/02 00:50:27;;;;;;;;;;;17.40;84.90;;;;;;4977613;28;19927;-72
2021/07/02 00:52:53;;;;;;;;;;;17.50;85.80;;;;;;4993106;28;19931;-73
2021/07/02 00:55:18;;;;;;;;;;;17.50;84.40;;;;;;4978107;28;19927;-72
2021/07/02 00:57:45;;;;;;;;;;;17.50;84.40;;;;;;4977040;28;19952;-72
2021/07/02 01:00:10;;;;;;;;;;;17.40;84.00;;;;;;4992925;28;19946;-73
2021/07/02 01:02:36;;;;;;;;;;;17.40;84.40;;;;;;4977700;28;20395;-72
2021/07/02 01:05:02;;;;;;;;;;;17.40;84.30;;;;;;4976107;28;19932;-72
2021/07/02 01:07:27;;;;;;;;;;;17.40;85.50;;;;;;4977902;28;19987;-73
2021/07/02 01:09:53;;;;;;;;;;;17.40;84.40;;;;;;4977553;28;19925;-73
2021/07/02 01:12:18;;;;;;;;;;;17.40;84.00;;;;;;4992264;28;20377;-72
2021/07/02 01:14:44;;;;;;;;;;;17.40;84.90;;;;;;4992277;28;20019;-72
2021/07/02 01:17:09;;;;;;;;;;;17.30;84.60;;;;;;4992731;28;20266;-72
2021/07/02 01:19:35;;;;;;;;;;;17.40;84.90;;;;;;4977312;28;19964;-72
2021/07/02 01:22:00;;;;;;;;;;;17.40;84.70;;;;;;4977084;28;19924;-72
2021/07/02 01:24:26;;;;;;;;;;;17.40;84.40;;;;;;4977310;28;19935;-72
2021/07/02 01:26:52;;;;;;;;;;;17.40;85.40;;;;;;4976967;28;20008;-74
2021/07/02 01:29:17;;;;;;;;;;;17.40;85.30;;;;;;4976937;28;20307;-71
2021/07/02 01:31:43;;;;;;;;;;;17.40;85.10;;;;;;4976915;28;19929;-72
2021/07/02 01:34:08;;;;;;;;;;;17.30;84.30;;;;;;4977417;28;19921;-72
2021/07/02 01:36:34;;;;;;;;;;;17.30;84.50;;;;;;4991858;28;19927;-72
2021/07/02 01:38:59;;;;;;;;;;;17.30;85.10;;;;;;4992025;28;19942;-72
2021/07/02 01:41:25;;;;;;;;;;;17.30;84.90;;;;;;4991774;28;19926;-72
2021/07/02 01:43:50;;;;;;;;;;;17.20;84.80;;;;;;4976680;28;19970;-72
2021/07/02 01:46:16;;;;;;;;;;;17.10;85.20;;;;;;4976574;28;19927;-73
2021/07/02 01:48:43;;;;;;;;;;;17.10;85.00;;;;;;4975766;28;19921;-72
2021/07/02 01:51:08;;;;;;;;;;;17.00;85.20;;;;;;4991880;28;20384;-73
2021/07/02 01:53:34;;;;;;;;;;;17.00;85.10;;;;;;4976951;28;19978;-72
2021/07/02 01:55:59;;;;;;;;;;;17.10;84.70;;;;;;4976437;28;19952;-72
2021/07/02 01:58:25;;;;;;;;;;;17.10;85.40;;;;;;4991957;28;20429;-72
2021/07/02 02:00:50;;;;;;;;;;;17.10;85.80;;;;;;4976300;28;19922;-72
2021/07/02 02:03:16;;;;;;;;;;;17.10;85.40;;;;;;4976300;28;19956;-72
2021/07/02 02:05:41;;;;;;;;;;;17.10;86.90;;;;;;4976237;28;19999;-71
2021/07/02 02:08:07;;;;;;;;;;;17.00;85.70;;;;;;4976741;28;19929;-72
2021/07/02 02:10:32;;;;;;;;;;;16.90;85.60;;;;;;4976157;28;19928;-73
2021/07/02 02:12:58;;;;;;;;;;;16.90;86.10;;;;;;4976080;28;20466;-72
2021/07/02 02:15:23;;;;;;;;;;;16.80;86.50;;;;;;4976295;28;19925;-72
2021/07/02 02:17:49;;;;;;;;;;;16.80;86.90;;;;;;4975994;28;19929;-73
2021/07/02 02:20:15;;;;;;;;;;;16.80;86.60;;;;;;4975897;28;19996;-72
2021/07/02 02:22:40;;;;;;;;;;;16.70;86.70;;;;;;4990960;28;19930;-72
2021/07/02 02:25:06;;;;;;;;;;;16.70;86.90;;;;;;4991183;28;19975;-71
2021/07/02 02:27:32;;;;;;;;;;;16.70;87.60;;;;;;4976111;28;19936;-72
2021/07/02 02:29:58;;;;;;;;;;;16.80;87.00;;;;;;4976361;28;19926;-72
2021/07/02 02:32:23;;;;;;;;;;;16.80;87.40;;;;;;4991029;28;19925;-74
2021/07/02 02:34:49;;;;;;;;;;;16.80;86.40;;;;;;4976224;28;19965;-72
2021/07/02 02:37:14;;;;;;;;;;;16.80;87.00;;;;;;4975931;28;19960;-72
2021/07/02 02:39:39;;;;;;;;;;;16.80;86.60;;;;;;4990586;28;19940;-72
2021/07/02 02:42:05;;;;;;;;;;;16.80;87.30;;;;;;4975823;28;20374;-72
2021/07/02 02:44:31;;;;;;;;;;;16.80;86.70;;;;;;4975573;28;19930;-72
2021/07/02 02:46:56;;;;;;;;;;;16.80;86.70;;;;;;4975771;28;20415;-73
2021/07/02 02:49:22;;;;;;;;;;;16.70;87.30;;;;;;4974171;28;19928;-73
2021/07/02 02:51:47;;;;;;;;;;;16.70;87.50;;;;;;4990765;28;19950;-72
2021/07/02 02:54:13;;;;;;;;;;;16.70;87.00;;;;;;4975312;28;19939;-74
2021/07/02 02:57:03;;;;;;;;;;;16.70;87.30;;;;;;4990464;28;19958;-72
2021/07/02 02:59:24;;;;;;;;;;;16.80;87.00;;;;;;4974845;28;19993;-72
2021/07/02 03:01:49;;;;;;;;;;;16.80;86.20;;;;;;4975560;28;20280;-73
2021/07/02 03:04:15;;;;;;;;;;;16.80;86.60;;;;;;4990221;28;19925;-73
2021/07/02 03:06:40;;;;;;;;;;;16.70;86.50;;;;;;4975518;28;20388;-72
2021/07/02 03:09:06;;;;;;;;;;;16.70;86.40;;;;;;4973936;28;19924;-73
2021/07/02 03:11:31;;;;;;;;;;;16.70;86.60;;;;;;4973903;28;20021;-71
2021/07/02 03:13:57;;;;;;;;;;;16.70;87.10;;;;;;4975168;28;19927;-72
2021/07/02 03:16:22;;;;;;;;;;;16.70;86.70;;;;;;4990340;28;19925;-72
2021/07/02 03:18:48;;;;;;;;;;;16.70;87.10;;;;;;4975552;28;20387;-72
2021/07/02 03:21:13;;;;;;;;;;;16.70;86.90;;;;;;4975071;28;20025;-72
2021/07/02 03:23:38;;;;;;;;;;;16.60;86.80;;;;;;4974990;28;19932;-72
2021/07/02 03:26:04;;;;;;;;;;;16.60;87.20;;;;;;4975248;28;19924;-73
2021/07/02 03:28:32;;;;;;;;;;;16.60;87.60;;;;;;4975223;28;19924;-72
2021/07/02 03:30:58;;;;;;;;;;;16.60;88.00;;;;;;4974928;28;19990;-72
2021/07/02 03:33:23;;;;;;;;;;;16.70;87.50;;;;;;4975483;28;20360;-72
2021/07/02 03:35:49;;;;;;;;;;;16.60;87.40;;;;;;4974919;28;19979;-72
2021/07/02 03:38:14;;;;;;;;;;;16.60;87.70;;;;;;4973531;28;19935;-72
2021/07/02 03:40:40;;;;;;;;;;;16.70;87.40;;;;;;4974842;28;20018;-72
2021/07/02 03:43:05;;;;;;;;;;;16.70;87.00;;;;;;4975113;28;19921;-72
2021/07/02 03:45:30;;;;;;;;;;;16.60;86.90;;;;;;4974752;28;20385;-72
2021/07/02 03:47:56;;;;;;;;;;;16.60;87.40;;;;;;4974772;28;19931;-72
2021/07/02 03:50:23;;;;;;;;;;;16.50;88.00;;;;;;4974782;28;19923;-72
2021/07/02 03:52:48;;;;;;;;;;;16.50;87.70;;;;;;4975300;28;20027;-72
2021/07/02 03:55:14;;;;;;;;;;;16.40;88.30;;;;;;4989383;28;19981;-73
2021/07/02 03:57:39;;;;;;;;;;;16.40;88.50;;;;;;4989613;28;20334;-73
2021/07/02 04:00:07;;;;;;;;;;;16.40;89.40;;;;;;4975296;28;20383;-72
2021/07/02 04:02:32;;;;;;;;;;;16.50;88.60;;;;;;4989984;28;19945;-72
2021/07/02 04:04:58;;;;;;;;;;;16.50;88.40;;;;;;4974668;28;19927;-72
2021/07/02 04:07:25;;;;;;;;;;;16.60;88.20;;;;;;4974909;28;20356;-71
2021/07/02 04:09:50;;;;;;;;;;;16.60;87.70;;;;;;4973300;28;19960;-72
2021/07/02 04:12:16;;;;;;;;;;;16.60;88.70;;;;;;4992280;28;19930;-72
2021/07/02 04:14:41;;;;;;;;;;;16.50;88.30;;;;;;4978270;28;20371;-71
2021/07/02 04:17:07;;;;;;;;;;;16.50;87.90;;;;;;4993335;28;19924;-72
2021/07/02 04:19:32;;;;;;;;;;;16.60;88.30;;;;;;4978416;28;19993;-72
2021/07/02 04:21:58;;;;;;;;;;;16.60;87.90;;;;;;4978229;28;20015;-73
2021/07/02 04:24:26;;;;;;;;;;;16.50;87.70;;;;;;4993789;28;20013;-72
2021/07/02 04:26:52;;;;;;;;;;;16.40;87.80;;;;;;4992792;28;19978;-73
2021/07/02 04:29:18;;;;;;;;;;;16.40;88.20;;;;;;4978008;28;20022;-72
2021/07/02 04:31:43;;;;;;;;;;;16.50;88.60;;;;;;4978250;28;19922;-72
2021/07/02 04:34:09;;;;;;;;;;;16.40;88.10;;;;;;4977946;28;19929;-71
2021/07/02 04:36:35;;;;;;;;;;;16.40;88.40;;;;;;4978428;28;20371;-72
2021/07/02 04:39:00;;;;;;;;;;;16.40;88.10;;;;;;4977826;28;19979;-72
2021/07/02 04:41:26;;;;;;;;;;;16.40;88.70;;;;;;4978102;28;19963;-72
2021/07/02 04:43:51;;;;;;;;;;;16.40;87.70;;;;;;4977727;28;19924;-72
2021/07/02 04:46:17;;;;;;;;;;;16.30;87.40;;;;;;4977747;28;19935;-74
2021/07/02 04:48:43;;;;;;;;;;;16.30;87.80;;;;;;4977972;28;19979;-72
2021/07/02 04:51:08;;;;;;;;;;;16.30;88.10;;;;;;4977624;28;19930;-72
2021/07/02 04:53:34;;;;;;;;;;;16.30;88.70;;;;;;4977718;28;19947;-72
2021/07/02 04:55:59;;;;;;;;;;;16.20;88.60;;;;;;4977347;28;19927;-72
2021/07/02 04:58:25;;;;;;;;;;;16.30;88.50;;;;;;4978004;28;20019;-72
2021/07/02 05:00:50;;;;;;;;;;;16.30;88.40;;;;;;4977422;28;19923;-72
2021/07/02 05:03:16;;;;;;;;;;;16.30;88.40;;;;;;4977434;28;19924;-72
2021/07/02 05:05:42;;;;;;;;;;;16.30;88.90;;;;;;4977985;28;19923;-72
2021/07/02 05:08:07;;;;;;;;;;;16.20;89.40;;;;;;4992330;28;19979;-72
2021/07/02 05:10:33;;;;;;;;;;;16.20;89.30;;;;;;4977712;28;19957;-72
2021/07/02 05:12:59;;;;;;;;;;;16.20;89.40;;;;;;4992296;28;19930;-72
2021/07/02 05:15:25;;;;;;;;;;;16.20;90.00;;;;;;4992535;28;19921;-72
2021/07/02 05:17:50;;;;;;;;;;;16.30;89.40;;;;;;4977409;28;19923;-72
2021/07/02 05:20:16;;;;;;;;;;;16.30;89.50;;;;;;4977044;28;20043;-72
2021/07/02 05:22:41;;;;;;;;;;;16.40;89.50;;;;;;4977168;28;19947;-72
2021/07/02 05:25:07;;;;;;;;;;;16.50;88.70;;;;;;4976984;28;19925;-72
2021/07/02 05:27:33;;;;;;;;;;;16.40;88.30;;;;;;4977275;28;20347;-72
2021/07/02 05:29:58;;;;;;;;;;;16.50;88.50;;;;;;4977479;28;20404;-72
2021/07/02 05:32:24;;;;;;;;;;;16.50;88.00;;;;;;4977166;28;19920;-73
2021/07/02 05:34:49;;;;;;;;;;;16.50;89.10;;;;;;4991914;28;20441;-72
2021/07/02 05:37:15;;;;;;;;;;;16.60;88.70;;;;;;4976828;28;20293;-71
2021/07/02 05:39:40;;;;;;;;;;;16.60;87.70;;;;;;4976653;28;19994;-71
2021/07/02 05:42:06;;;;;;;;;;;16.50;87.70;;;;;;4976961;28;19982;-72
2021/07/02 05:44:31;;;;;;;;;;;16.50;88.00;;;;;;4991682;28;19924;-72
2021/07/02 05:46:57;;;;;;;;;;;16.40;88.50;;;;;;4977184;28;20285;-72
2021/07/02 05:49:22;;;;;;;;;;;16.40;88.50;;;;;;4976896;28;19922;-73
2021/07/02 05:51:48;;;;;;;;;;;16.30;88.90;;;;;;4977076;28;19967;-72
2021/07/02 05:54:14;;;;;;;;;;;16.40;88.70;;;;;;4991472;28;20003;-71
2021/07/02 05:56:39;;;;;;;;;;;16.40;88.70;;;;;;4976412;28;19964;-72
2021/07/02 05:59:05;;;;;;;;;;;16.50;88.30;;;;;;4976351;28;19993;-72
2021/07/02 06:01:30;;;;;;;;;;;16.40;89.80;;;;;;4976799;28;19928;-72
2021/07/02 06:03:56;;;;;;;;;;;16.40;89.80;;;;;;4976333;28;19933;-72
2021/07/02 06:06:21;;;;;;;;;;;16.50;89.70;;;;;;4976513;28;19924;-72
2021/07/02 06:08:47;;;;;;;;;;;16.50;88.60;;;;;;4976228;28;19921;-72
2021/07/02 06:11:12;;;;;;;;;;;16.60;88.70;;;;;;4976783;28;20397;-73
2021/07/02 06:13:38;;;;;;;;;;;16.50;88.20;;;;;;4991165;28;20473;-72
2021/07/02 06:16:04;;;;;;;;;;;16.50;88.50;;;;;;4976383;28;19925;-72
2021/07/02 06:18:29;;;;;;;;;;;16.50;88.30;;;;;;4976002;28;19924;-72
2021/07/02 06:20:55;;;;;;;;;;;16.70;88.20;;;;;;4974732;28;19928;-72
2021/07/02 06:23:21;;;;;;;;;;;16.80;88.20;;;;;;4976702;28;19930;-72
2021/07/02 06:25:46;;;;;;;;;;;16.80;88.20;;;;;;4981841;28;20378;-74
2021/07/02 06:28:12;;;;;;;;;;;16.90;87.90;;;;;;4981472;28;19931;-73
2021/07/02 06:30:38;;;;;;;;;;;17.10;87.30;;;;;;4978021;28;19995;-73
2021/07/02 06:33:03;;;;;;;;;;;17.20;87.00;;;;;;4975742;28;19926;-73
2021/07/02 06:35:29;;;;;;;;;;;17.10;87.50;;;;;;4975162;28;20005;-73
2021/07/02 06:37:54;;;;;;;;;;;17.10;87.80;;;;;;4975938;28;19927;-72
2021/07/02 06:40:20;;;;;;;;;;;17.20;87.40;;;;;;4975548;28;19950;-73
2021/07/02 06:42:45;;;;;;;;;;;17.20;87.30;;;;;;4990617;28;19925;-72
2021/07/02 06:45:12;;;;;;;;;;;17.40;87.40;;;;;;4975872;28;20463;-74
2021/07/02 06:47:49;;;;;;;;;;;17.40;86.80;;;;;;4990407;28;19925;-73
2021/07/02 06:50:15;;;;;;;;;;;17.30;87.20;;;;;;4975426;28;19925;-72
2021/07/02 06:52:40;;;;;;;;;;;17.30;87.20;;;;;;4975733;28;19931;-72
2021/07/02 06:55:06;;;;;;;;;;;17.40;87.40;;;;;;4975351;28;20323;-72
2021/07/02 06:57:32;;;;;;;;;;;17.60;87.00;;;;;;4975282;28;20011;-73
2021/07/02 07:00:02;;;;;;;;;;;17.70;86.50;;;;;;4975878;28;20400;-72
2021/07/02 07:02:28;;;;;;;;;;;17.80;86.00;;;;;;4975348;28;19924;-72
2021/07/02 07:04:53;;;;;;;;;;;17.80;86.30;;;;;;4975855;28;20375;-72
2021/07/02 07:07:19;;;;;;;;;;;17.90;86.30;;;;;;4975254;28;19922;-72
2021/07/02 07:09:44;;;;;;;;;;;18.00;86.50;;;;;;4990498;28;19974;-72
2021/07/02 07:12:10;;;;;;;;;;;18.10;85.90;;;;;;4975219;28;20438;-75
2021/07/02 07:14:35;;;;;;;;;;;18.10;85.70;;;;;;4975112;28;19961;-73
2021/07/02 07:17:02;;;;;;;;;;;18.10;86.10;;;;;;4975644;28;19924;-74
2021/07/02 07:19:28;;;;;;;;;;;18.10;86.00;;;;;;4975015;28;19948;-72
2021/07/02 07:21:54;;;;;;;;;;;18.00;86.30;;;;;;4975114;28;19929;-74
2021/07/02 07:24:20;;;;;;;;;;;18.00;86.30;;;;;;4975053;28;20339;-74
2021/07/02 07:26:45;;;;;;;;;;;18.10;86.00;;;;;;4975016;28;19923;-72
2021/07/02 07:29:10;;;;;;;;;;;18.20;86.30;;;;;;4975240;28;20048;-72
2021/07/02 07:31:36;;;;;;;;;;;18.30;85.80;;;;;;4989938;28;20385;-74
2021/07/02 07:34:02;;;;;;;;;;;18.30;85.70;;;;;;4974896;28;19930;-73
2021/07/02 07:36:29;;;;;;;;;;;18.30;85.60;;;;;;4990146;28;20407;-72
2021/07/02 07:38:55;;;;;;;;;;;18.50;85.20;;;;;;4974801;28;19991;-74
2021/07/02 07:41:23;;;;;;;;;;;18.60;85.10;;;;;;4975436;28;19926;-72
2021/07/02 07:43:48;;;;;;;;;;;18.60;85.00;;;;;;4974800;28;19997;-74
2021/07/02 07:46:14;;;;;;;;;;;18.70;84.80;;;;;;4975611;28;20374;-73
2021/07/02 07:48:39;;;;;;;;;;;18.50;85.30;;;;;;4979042;28;19922;-72
2021/07/02 07:51:17;;;;;;;;;;;18.50;85.60;;;;;;4993856;28;19922;-74
2021/07/02 07:53:43;;;;;;;;;;;18.60;85.50;;;;;;4978953;28;19963;-72
2021/07/02 07:56:08;;;;;;;;;;;18.70;85.10;;;;;;4993542;28;20421;-72
2021/07/02 07:58:34;;;;;;;;;;;18.80;84.80;;;;;;4977004;28;20291;-73
2021/07/02 08:00:59;;;;;;;;;;;19.00;84.90;;;;;;4994177;28;19925;-72
2021/07/02 08:03:25;;;;;;;;;;;19.10;84.30;;;;;;4993648;28;20376;-73
2021/07/02 08:05:50;;;;;;;;;;;19.30;84.40;;;;;;4993595;28;20015;-73
2021/07/02 08:08:16;;;;;;;;;;;19.30;83.90;;;;;;4978749;28;20013;-74
2021/07/02 08:10:42;;;;;;;;;;;19.30;83.80;;;;;;4978407;28;20384;-73
2021/07/02 08:13:07;;;;;;;;;;;19.30;84.30;;;;;;4978613;28;19927;-72
2021/07/02 08:15:33;;;;;;;;;;;19.60;83.60;;;;;;4978341;28;19924;-73
2021/07/02 08:17:58;;;;;;;;;;;19.60;83.10;;;;;;4993634;28;19922;-74
2021/07/02 08:20:24;;;;;;;;;;;19.50;83.50;;;;;;4978157;28;20424;-72
2021/07/02 08:22:49;;;;;;;;;;;19.30;84.20;;;;;;4978205;28;19923;-73
2021/07/02 08:25:15;;;;;;;;;;;19.30;84.60;;;;;;4978165;28;19932;-73
2021/07/02 08:30:25;;;;;;;;;;;19.30;84.50;;;;;;4978358;28;20064;-72
2021/07/02 08:32:50;;;;;;;;;;;19.20;85.00;;;;;;4978031;28;19964;-72
2021/07/02 08:35:20;;;;;;;;;;;19.30;85.00;;;;;;4978495;28;20370;-77
2021/07/02 08:37:46;;;;;;;;;;;19.50;84.30;;;;;;4991835;28;19921;-75
2021/07/02 08:40:12;;;;;;;;;;;19.60;83.80;;;;;;4994596;28;19940;-72
2021/07/02 08:42:37;;;;;;;;;;;19.80;83.40;;;;;;5016228;28;19980;-72
2021/07/02 08:45:03;;;;;;;;;;;20.20;82.60;;;;;;5005660;28;19938;-72
2021/07/02 08:47:28;;;;;;;;;;;20.50;80.80;;;;;;4995623;28;19935;-75
2021/07/02 08:49:54;;;;;;;;;;;20.90;80.60;;;;;;4996483;28;19930;-73
2021/07/02 08:52:19;;;;;;;;;;;21.30;79.50;;;;;;4995077;28;20298;-74
2021/07/02 08:54:45;;;;;;;;;;;21.20;79.80;;;;;;4994996;28;19943;-72
2021/07/02 08:57:10;;;;;;;;;;;21.00;80.00;;;;;;5004780;28;19952;-70
2021/07/02 08:59:36;;;;;;;;;;;20.80;81.00;;;;;;5015617;28;19948;-71
2021/07/02 09:02:01;;;;;;;;;;;20.70;81.40;;;;;;5015568;28;19964;-72
2021/07/02 09:04:31;;;;;;;;;;;20.80;81.50;;;;;;5015670;28;19925;-72
2021/07/02 09:07:16;;;;;;;;;;;20.70;81.10;;;;;;5015627;28;19924;-71
2021/07/02 09:10:01;;;;;;;;;;;20.90;81.50;;;;;;5015505;28;19931;-73
2021/07/02 09:12:28;;;;;;;;;;;21.10;80.90;;;;;;5015299;28;19927;-71
2021/07/02 09:15:01;;;;;;;;;;;21.20;80.70;;;;;;5014231;28;20022;-71
2021/07/02 09:17:26;;;;;;;;;;;21.10;80.80;;;;;;5015504;28;20263;-71
2021/07/02 09:20:07;;;;;;;;;;;21.20;80.70;;;;;;5015369;28;19982;-72
2021/07/02 09:22:45;;;;;;;;;;;21.30;80.50;;;;;;5014170;28;20018;-71
2021/07/02 09:25:24;;;;;;;;;;;21.20;80.90;;;;;;5015341;28;19924;-73
2021/07/02 09:27:50;;;;;;;;;;;21.30;80.70;;;;;;5015298;28;19924;-72
2021/07/02 09:30:19;;;;;;;;;;;21.60;79.70;;;;;;5015170;28;19922;-71
2021/07/02 09:32:46;;;;;;;;;;;21.70;79.70;;;;;;5012958;28;20018;-71
2021/07/02 09:35:12;;;;;;;;;;;21.70;79.70;;;;;;4994453;28;19976;-71
2021/07/02 09:37:40;;;;;;;;;;;21.40;80.40;;;;;;4994457;28;19927;-71
2021/07/02 09:40:10;;;;;;;;;;;21.30;81.40;;;;;;4994225;28;20327;-72
2021/07/02 09:42:36;;;;;;;;;;;21.30;81.10;;;;;;4995500;28;20287;-71
2021/07/02 09:45:02;;;;;;;;;;;21.40;80.80;;;;;;4993977;28;19924;-71
2021/07/02 09:47:28;;;;;;;;;;;21.40;81.10;;;;;;4993982;28;19927;-72
2021/07/02 09:50:09;;;;;;;;;;;21.30;81.30;;;;;;4993999;28;20305;-71
2021/07/02 09:52:40;;;;;;;;;;;21.20;81.20;;;;;;4994110;28;19924;-71
2021/07/02 09:55:06;;;;;;;;;;;21.10;81.30;;;;;;4993824;28;19946;-72
2021/07/02 09:57:31;;;;;;;;;;;21.00;81.70;;;;;;4994854;28;20347;-71
2021/07/02 10:00:26;;;;;;;;;;;21.00;82.10;;;;;;4994840;28;20406;-72
2021/07/02 10:02:56;;;;;;;;;;;20.90;82.00;;;;;;4994029;28;20372;-71
2021/07/02 10:05:21;;;;;;;;;;;20.90;82.80;;;;;;4995036;28;19926;-70
2021/07/02 10:07:59;;;;;;;;;;;20.80;82.60;;;;;;4994854;28;19929;-71
2021/07/02 10:10:25;;;;;;;;;;;20.70;83.50;;;;;;4993952;28;19925;-72
2021/07/02 10:12:52;;;;;;;;;;;21.00;82.20;;;;;;4994759;28;20012;-71
2021/07/02 10:15:17;;;;;;;;;;;21.20;81.40;;;;;;4994871;28;19931;-72
2021/07/02 10:17:43;;;;;;;;;;;21.30;81.30;;;;;;4994735;28;19924;-72
2021/07/02 10:20:09;;;;;;;;;;;21.30;81.10;;;;;;4993430;28;19942;-71
2021/07/02 10:22:34;;;;;;;;;;;21.20;80.90;;;;;;4994464;28;19928;-72
2021/07/02 10:25:02;;;;;;;;;;;21.50;81.10;;;;;;4994675;28;19924;-71
2021/07/02 10:27:27;;;;;;;;;;;21.80;79.80;;;;;;4993433;28;20014;-71
2021/07/02 10:29:53;;;;;;;;;;;21.90;79.70;;;;;;4994483;28;19970;-71
2021/07/02 10:32:19;;;;;;;;;;;21.90;79.50;;;;;;4993104;28;19959;-71
2021/07/02 10:34:45;;;;;;;;;;;22.00;79.40;;;;;;5011098;28;19927;-71
2021/07/02 10:37:10;;;;;;;;;;;21.90;79.90;;;;;;4996357;28;19931;-71
2021/07/02 10:39:36;;;;;;;;;;;22.00;78.50;;;;;;5013914;28;19965;-71
2021/07/02 10:42:06;;;;;;;;;;;21.90;80.00;;;;;;5012903;28;19935;-71
2021/07/02 10:44:32;;;;;;;;;;;21.90;79.60;;;;;;5013663;28;19922;-72
2021/07/02 10:46:57;;;;;;;;;;;21.80;79.30;;;;;;5014003;28;19931;-71
2021/07/02 10:49:32;;;;;;;;;;;21.80;79.30;;;;;;5013700;28;20389;-72
2021/07/02 10:51:59;;;;;;;;;;;21.70;80.10;;;;;;5012560;28;19931;-71
2021/07/02 10:54:29;;;;;;;;;;;21.60;80.10;;;;;;5013509;28;20420;-71
2021/07/02 10:56:56;;;;;;;;;;;21.50;80.00;;;;;;5013605;28;19956;-71
2021/07/02 10:59:22;;;;;;;;;;;21.60;80.20;;;;;;5013279;28;20405;-74
2021/07/02 11:02:12;;;;;;;;;;;21.70;80.70;;;;;;5012435;28;20437;-72
2021/07/02 11:04:44;;;;;;;;;;;21.70;79.70;;;;;;5009457;28;20560;-71
2021/07/02 11:07:19;;;;;;;;;;;21.60;80.40;;;;;;5012384;28;19926;-71
2021/07/02 11:09:48;;;;;;;;;;;21.60;80.60;;;;;;5013036;28;20013;-71
2021/07/02 11:12:13;;;;;;;;;;;21.60;79.80;;;;;;5013200;28;20277;-71
2021/07/02 11:15:09;;;;;;;;;;;21.70;80.30;;;;;;5013130;28;19929;-72
2021/07/02 11:17:36;;;;;;;;;;;21.90;79.00;;;;;;5013145;28;19926;-71
2021/07/02 11:20:04;;;;;;;;;;;22.00;79.20;;;;;;5012952;28;19939;-71
2021/07/02 11:22:32;;;;;;;;;;;22.00;78.80;;;;;;5013233;28;19980;-74
2021/07/02 11:25:01;;;;;;;;;;;21.80;79.40;;;;;;5012989;28;19946;-71
2021/07/02 11:27:43;;;;;;;;;;;21.80;79.90;;;;;;5012486;28;19929;-72
2021/07/02 11:30:12;;;;;;;;;;;21.90;79.80;;;;;;5012546;28;19955;-71
2021/07/02 11:32:37;;;;;;;;;;;21.80;79.80;;;;;;5011746;28;19958;-71
2021/07/02 11:35:19;;;;;;;;;;;21.90;79.70;;;;;;4993260;28;19971;-71
2021/07/02 11:38:03;;;;;;;;;;;22.00;79.00;;;;;;4993522;28;19922;-72
2021/07/02 11:40:29;;;;;;;;;;;21.90;79.00;;;;;;4992993;28;19947;-71
2021/07/02 11:42:55;;;;;;;;;;;21.80;79.60;;;;;;4993326;28;19924;-71
2021/07/02 11:45:35;;;;;;;;;;;21.90;80.10;;;;;;4993120;28;20345;-72
2021/07/02 11:48:00;;;;;;;;;;;21.90;79.50;;;;;;4992200;28;20019;-71
2021/07/02 11:50:38;;;;;;;;;;;22.00;79.50;;;;;;4975520;28;20388;-71
2021/07/02 11:53:03;;;;;;;;;;;22.20;77.90;;;;;;4993206;28;20375;-74
2021/07/02 11:55:29;;;;;;;;;;;22.30;78.30;;;;;;4993079;28;19932;-72
2021/07/02 11:58:11;;;;;;;;;;;22.10;78.40;;;;;;4992459;28;19956;-72
2021/07/02 12:00:37;;;;;;;;;;;22.00;79.60;;;;;;4991918;28;20037;-72
2021/07/02 12:03:02;;;;;;;;;;;22.10;78.00;;;;;;4993174;28;20381;-72
2021/07/02 12:05:28;;;;;;;;;;;22.20;78.60;;;;;;4992962;28;19927;-72
2021/07/02 12:07:53;;;;;;;;;;;22.20;78.60;;;;;;4992723;28;20385;-71
2021/07/02 12:10:19;;;;;;;;;;;22.00;78.30;;;;;;4993016;28;19929;-71
2021/07/02 12:12:44;;;;;;;;;;;21.90;79.30;;;;;;4992001;28;19977;-72
2021/07/02 12:15:10;;;;;;;;;;;21.80;80.30;;;;;;4991878;28;19921;-70
2021/07/02 12:17:35;;;;;;;;;;;21.70;79.80;;;;;;4992672;28;20411;-73
2021/07/02 12:20:01;;;;;;;;;;;21.60;80.00;;;;;;4992833;28;20414;-73
2021/07/02 12:22:26;;;;;;;;;;;21.60;80.20;;;;;;4993054;28;19929;-71
2021/07/02 12:24:53;;;;;;;;;;;21.50;80.00;;;;;;4992827;28;19932;-71
2021/07/02 12:27:20;;;;;;;;;;;21.40;80.20;;;;;;4992538;28;19953;-72
2021/07/02 12:29:45;;;;;;;;;;;21.30;80.90;;;;;;4975403;28;19926;-71
2021/07/02 12:32:13;;;;;;;;;;;21.30;80.90;;;;;;4993336;28;19932;-71
2021/07/02 12:34:39;;;;;;;;;;;21.50;80.50;;;;;;5012327;28;19957;-71
2021/07/02 12:37:08;;;;;;;;;;;21.60;79.90;;;;;;5014596;28;19925;-71
2021/07/02 12:39:37;;;;;;;;;;;21.50;79.70;;;;;;5015876;28;19958;-71
2021/07/02 12:42:22;;;;;;;;;;;21.50;80.30;;;;;;5016307;28;19958;-72
2021/07/02 12:44:49;;;;;;;;;;;21.60;79.40;;;;;;5015695;28;19930;-72
2021/07/02 12:47:14;;;;;;;;;;;21.50;79.50;;;;;;5014325;28;19933;-71
2021/07/02 12:49:50;;;;;;;;;;;21.50;79.50;;;;;;5014523;28;20024;-71
2021/07/02 12:55:02;;;;;;;;;;;21.50;80.30;;;;;;5015722;28;19968;-71
2021/07/02 12:57:35;;;;;;;;;;;21.50;80.30;;;;;;5014072;28;20005;-72
2021/07/02 13:00:01;;;;;;;;;;;21.50;79.40;;;;;;5015758;28;20070;-71
2021/07/02 13:02:26;;;;;;;;;;;21.40;78.90;;;;;;5016022;28;20095;-72
2021/07/02 13:04:52;;;;;;;;;;;21.40;79.80;;;;;;5015640;28;19928;-71
2021/07/02 13:07:18;;;;;;;;;;;21.40;79.90;;;;;;5015141;28;19951;-71
2021/07/02 13:09:43;;;;;;;;;;;21.40;80.40;;;;;;5015062;28;19924;-72
2021/07/02 13:12:13;;;;;;;;;;;21.50;80.10;;;;;;5014211;28;19994;-72
2021/07/02 13:14:43;;;;;;;;;;;21.50;79.80;;;;;;5015370;28;19954;-70
2021/07/02 13:17:09;;;;;;;;;;;21.60;79.60;;;;;;5013226;28;20397;-72
2021/07/02 13:19:35;;;;;;;;;;;21.60;79.30;;;;;;5014883;28;20038;-71
2021/07/02 13:22:29;;;;;;;;;;;21.70;79.60;;;;;;5014818;28;19970;-71
2021/07/02 13:25:01;;;;;;;;;;;21.60;79.00;;;;;;5014858;28;20270;-72
2021/07/02 13:27:27;;;;;;;;;;;21.70;79.00;;;;;;5014640;28;20272;-72
2021/07/02 13:29:59;;;;;;;;;;;21.80;78.70;;;;;;5013962;28;20064;-72
2021/07/02 13:32:25;;;;;;;;;;;21.80;79.00;;;;;;5013632;28;19929;-72
2021/07/02 13:34:50;;;;;;;;;;;21.80;78.50;;;;;;4995599;28;19929;-71
2021/07/02 13:37:24;;;;;;;;;;;21.80;79.30;;;;;;4994915;28;19920;-72
2021/07/02 13:39:49;;;;;;;;;;;21.70;79.50;;;;;;4997822;28;19944;-71
2021/07/02 13:42:16;;;;;;;;;;;21.50;80.00;;;;;;5000533;28;19930;-74
2021/07/02 13:44:57;;;;;;;;;;;21.40;80.60;;;;;;4993834;28;19927;-73
2021/07/02 13:47:26;;;;;;;;;;;21.30;81.10;;;;;;4995074;28;19922;-72
2021/07/02 13:49:51;;;;;;;;;;;21.30;80.90;;;;;;4994887;28;19974;-71
2021/07/02 13:52:17;;;;;;;;;;;21.20;81.10;;;;;;4995174;28;19924;-71
2021/07/02 13:54:42;;;;;;;;;;;21.10;81.50;;;;;;4994826;28;20037;-71
2021/07/02 13:57:08;;;;;;;;;;;21.10;81.50;;;;;;4993741;28;20458;-71
2021/07/02 13:59:33;;;;;;;;;;;21.00;81.60;;;;;;4994584;28;20021;-73
2021/07/02 14:01:59;;;;;;;;;;;21.10;82.00;;;;;;4977340;28;20383;-71
2021/07/02 14:04:25;;;;;;;;;;;21.20;81.60;;;;;;4994742;28;19922;-71
2021/07/02 14:06:50;;;;;;;;;;;21.40;81.30;;;;;;4993659;28;19925;-72
2021/07/02 14:09:17;;;;;;;;;;;21.50;80.50;;;;;;4994319;28;19923;-71
2021/07/02 14:11:42;;;;;;;;;;;21.60;80.10;;;;;;4994612;28;20299;-71
2021/07/02 14:14:08;;;;;;;;;;;21.60;79.80;;;;;;4993403;28;19929;-74
2021/07/02 14:16:34;;;;;;;;;;;21.60;80.00;;;;;;4994582;28;20380;-71
2021/07/02 14:19:03;;;;;;;;;;;21.60;79.40;;;;;;4994244;28;20032;-72
2021/07/02 14:21:29;;;;;;;;;;;21.70;79.50;;;;;;4994324;28;19989;-71